Time;durP1;ratioP1;P1;durP2;ratioP2;P2;SDS_P1;SDS_P2;PMS_P1;PMS_P2;Temp;Humidity;BMP_temperature;BMP_pressure;BME280_temperature;BME280_humidity;BME280_pressure;Samples;Min_cycle;Max_cycle;Signal;HPM_P1;HPM_P2
2024/04/03 00:01:27;;;;;;;5.65;2.10;;;;;;;;;;5016940;28;20445;-55
2024/04/03 00:03:53;;;;;;;5.10;1.60;;;;;;;;;;5009859;28;20046;-55
2024/04/03 00:06:19;;;;;;;3.90;1.75;;;;;;;;;;5011617;28;20445;-55
2024/04/03 00:08:46;;;;;;;4.38;2.08;;;;;;;;;;5011822;28;20062;-55
2024/04/03 00:11:12;;;;;;;5.47;1.63;;;;;;;;;;5031184;28;20485;-57
2024/04/03 00:13:40;;;;;;;5.15;2.80;;;;;;;;;;5031059;28;20049;-59
2024/04/03 00:16:06;;;;;;;4.15;1.70;;;;;;;;;;5029302;28;20057;-52
2024/04/03 00:18:33;;;;;;;4.57;1.70;;;;;;;;;;5031474;28;20049;-52
2024/04/03 00:21:00;;;;;;;3.95;1.67;;;;;;;;;;5031253;28;20049;-58
2024/04/03 00:23:27;;;;;;;2.72;1.40;;;;;;;;;;5026804;28;20104;-58
2024/04/03 00:25:57;;;;;;;3.30;1.70;;;;;;;;;;5030842;28;20077;-56
2024/04/03 00:28:24;;;;;;;3.08;1.27;;;;;;;;;;5031281;28;20670;-57
2024/04/03 00:30:52;;;;;;;4.57;2.20;;;;;;;;;;5030843;28;20053;-56
2024/04/03 00:33:19;;;;;;;4.05;1.98;;;;;;;;;;5028856;28;20548;-57
2024/04/03 00:35:54;;;;;;;2.45;1.20;;;;;;;;;;5032175;28;20049;-54
2024/04/03 00:38:21;;;;;;;4.28;1.85;;;;;;;;;;5029746;28;20551;-58
2024/04/03 00:40:53;;;;;;;3.20;1.30;;;;;;;;;;5034740;28;20064;-57
2024/04/03 00:43:20;;;;;;;3.92;1.40;;;;;;;;;;5034447;28;20081;-59
2024/04/03 00:45:46;;;;;;;4.18;1.42;;;;;;;;;;5032265;28;20049;-53
2024/04/03 00:48:15;;;;;;;2.35;1.23;;;;;;;;;;5034535;28;20081;-57
2024/04/03 00:50:42;;;;;;;4.30;1.70;;;;;;;;;;5034456;28;20053;-56
2024/04/03 00:53:09;;;;;;;4.00;1.50;;;;;;;;;;5034323;28;20109;-56
2024/04/03 00:55:35;;;;;;;5.07;1.77;;;;;;;;;;5034356;28;20053;-57
2024/04/03 00:58:03;;;;;;;2.53;1.30;;;;;;;;;;5034637;28;20100;-56
2024/04/03 01:00:29;;;;;;;3.47;1.50;;;;;;;;;;5032993;28;20050;-56
2024/04/03 01:02:56;;;;;;;3.75;1.50;;;;;;;;;;5030607;28;20047;-56
2024/04/03 01:05:23;;;;;;;3.47;1.92;;;;;;;;;;5034096;28;20454;-53
2024/04/03 01:07:50;;;;;;;3.35;1.30;;;;;;;;;;5031176;28;20053;-58
2024/04/03 01:10:16;;;;;;;4.35;1.75;;;;;;;;;;5033042;28;20049;-59
2024/04/03 01:12:43;;;;;;;3.45;1.33;;;;;;;;;;5021940;28;20046;-58
2024/04/03 01:15:11;;;;;;;4.68;1.65;;;;;;;;;;5033627;28;20065;-56
2024/04/03 01:17:38;;;;;;;4.07;1.60;;;;;;;;;;5027563;28;20058;-54
2024/04/03 01:20:06;;;;;;;3.58;1.30;;;;;;;;;;5033415;28;20068;-54
2024/04/03 01:22:35;;;;;;;3.88;1.67;;;;;;;;;;5017525;28;20054;-56
2024/04/03 01:25:02;;;;;;;3.45;1.40;;;;;;;;;;5014120;28;20057;-56
2024/04/03 01:27:29;;;;;;;4.38;1.52;;;;;;;;;;5014250;28;20104;-58
2024/04/03 01:29:55;;;;;;;2.65;1.30;;;;;;;;;;5032621;28;20061;-57
2024/04/03 01:32:24;;;;;;;4.78;1.40;;;;;;;;;;5029467;28;20187;-55
2024/04/03 01:34:50;;;;;;;3.53;1.58;;;;;;;;;;5023371;28;20472;-54
2024/04/03 01:37:18;;;;;;;2.78;1.20;;;;;;;;;;5032915;28;20053;-58
2024/04/03 01:39:44;;;;;;;2.78;1.20;;;;;;;;;;5016646;28;20095;-57
2024/04/03 01:42:13;;;;;;;2.75;1.20;;;;;;;;;;5032773;28;20493;-56
2024/04/03 01:44:39;;;;;;;2.85;1.30;;;;;;;;;;5015974;28;20052;-57
2024/04/03 01:47:06;;;;;;;3.95;1.30;;;;;;;;;;5017898;28;20107;-58
2024/04/03 01:49:32;;;;;;;4.60;1.30;;;;;;;;;;5032849;28;20260;-53
2024/04/03 01:51:59;;;;;;;3.05;1.55;;;;;;;;;;5013587;28;20505;-58
2024/04/03 01:54:26;;;;;;;3.55;1.55;;;;;;;;;;5013444;28;20052;-57
2024/04/03 01:56:54;;;;;;;2.25;1.10;;;;;;;;;;5013345;28;20056;-51
2024/04/03 01:59:21;;;;;;;3.17;1.40;;;;;;;;;;5013658;28;20058;-54
2024/04/03 02:01:48;;;;;;;3.15;1.27;;;;;;;;;;5020071;28;20060;-57
2024/04/03 02:04:14;;;;;;;3.97;1.42;;;;;;;;;;5025860;28;20046;-52
2024/04/03 02:06:41;;;;;;;2.13;1.13;;;;;;;;;;5031064;28;20053;-56
2024/04/03 02:09:07;;;;;;;4.22;1.20;;;;;;;;;;5012252;28;20104;-57
2024/04/03 02:11:34;;;;;;;2.97;1.10;;;;;;;;;;5025944;28;20061;-58
2024/04/03 02:14:00;;;;;;;3.88;1.50;;;;;;;;;;5027256;28;20421;-56
2024/04/03 02:16:30;;;;;;;2.05;1.08;;;;;;;;;;5019026;28;20148;-57
2024/04/03 02:18:56;;;;;;;3.85;1.02;;;;;;;;;;5032848;28;20049;-59
2024/04/03 02:21:23;;;;;;;2.55;1.10;;;;;;;;;;5032829;28;20136;-57
2024/04/03 02:23:49;;;;;;;3.10;1.20;;;;;;;;;;5032705;28;20434;-59
2024/04/03 02:26:17;;;;;;;2.42;1.00;;;;;;;;;;5032679;28;20061;-57
2024/04/03 02:28:43;;;;;;;4.57;1.10;;;;;;;;;;5032548;28;20133;-57
2024/04/03 02:31:10;;;;;;;4.57;1.23;;;;;;;;;;5029360;28;20128;-56
2024/04/03 02:33:37;;;;;;;2.17;1.05;;;;;;;;;;5032341;28;20042;-58
2024/04/03 02:36:11;;;;;;;2.83;1.10;;;;;;;;;;5032601;28;20056;-59
2024/04/03 02:38:37;;;;;;;2.78;1.60;;;;;;;;;;5032576;28;20045;-56
2024/04/03 02:41:05;;;;;;;2.63;0.95;;;;;;;;;;5032425;28;20045;-59
2024/04/03 02:43:31;;;;;;;2.35;1.13;;;;;;;;;;5032398;28;20076;-58
2024/04/03 02:45:58;;;;;;;2.10;0.90;;;;;;;;;;5025609;28;20076;-53
2024/04/03 02:48:24;;;;;;;2.75;1.20;;;;;;;;;;5032303;28;20049;-54
2024/04/03 02:51:01;;;;;;;1.98;1.10;;;;;;;;;;5032654;28;20045;-56
2024/04/03 02:53:27;;;;;;;3.72;1.10;;;;;;;;;;5032115;28;20061;-58
2024/04/03 02:55:54;;;;;;;2.60;1.20;;;;;;;;;;5031812;28;20053;-58
2024/04/03 02:58:20;;;;;;;2.75;1.13;;;;;;;;;;5032032;28;20107;-56
2024/04/03 03:00:47;;;;;;;2.67;1.00;;;;;;;;;;5026012;28;20049;-57
2024/04/03 03:03:13;;;;;;;3.63;1.10;;;;;;;;;;5028601;28;20437;-52
2024/04/03 03:05:40;;;;;;;3.13;1.83;;;;;;;;;;5031925;28;20055;-57
2024/04/03 03:08:07;;;;;;;3.00;1.10;;;;;;;;;;5031982;28;20061;-52
2024/04/03 03:10:34;;;;;;;6.03;1.10;;;;;;;;;;5031874;28;20124;-57
2024/04/03 03:13:00;;;;;;;2.25;1.08;;;;;;;;;;5003996;28;20060;-53
2024/04/03 03:15:27;;;;;;;3.25;1.10;;;;;;;;;;5010525;28;20046;-53
2024/04/03 03:17:53;;;;;;;2.67;1.00;;;;;;;;;;5030827;28;20061;-53
2024/04/03 03:20:20;;;;;;;3.47;1.10;;;;;;;;;;5031745;28;20053;-58
2024/04/03 03:22:46;;;;;;;2.03;0.90;;;;;;;;;;5031193;28;20061;-55
2024/04/03 03:25:14;;;;;;;3.05;1.10;;;;;;;;;;5031415;28;20049;-53
2024/04/03 03:27:40;;;;;;;2.17;0.90;;;;;;;;;;5031512;28;20049;-58
2024/04/03 03:30:08;;;;;;;2.28;1.15;;;;;;;;;;5026877;28;20080;-56
2024/04/03 03:32:33;;;;;;;3.53;1.35;;;;;;;;;;5027607;28;20069;-55
2024/04/03 03:35:00;;;;;;;2.35;0.80;;;;;;;;;;5031299;28;20045;-52
2024/04/03 03:37:27;;;;;;;3.15;0.90;;;;;;;;;;5031531;28;20123;-54
2024/04/03 03:39:54;;;;;;;3.63;1.20;;;;;;;;;;5031614;28;20049;-55
2024/04/03 03:42:23;;;;;;;3.20;1.05;;;;;;;;;;5031245;28;20425;-56
2024/04/03 03:44:50;;;;;;;2.95;1.15;;;;;;;;;;5028532;28;20084;-58
2024/04/03 03:47:16;;;;;;;2.28;1.20;;;;;;;;;;5025435;28;20053;-58
2024/04/03 03:52:40;;;;;;;2.08;1.08;;;;;;;;;;5031221;28;20515;-56
2024/04/03 03:55:08;;;;;;;2.22;1.00;;;;;;;;;;5031086;28;20082;-59
2024/04/03 03:57:36;;;;;;;1.50;0.82;;;;;;;;;;5031006;28;20060;-59
2024/04/03 04:00:05;;;;;;;3.10;1.23;;;;;;;;;;5028025;28;20528;-55
2024/04/03 04:02:32;;;;;;;2.17;0.85;;;;;;;;;;5024108;28;20052;-51
2024/04/03 04:04:58;;;;;;;2.70;0.90;;;;;;;;;;5030558;28;20056;-56
2024/04/03 04:07:24;;;;;;;2.53;1.00;;;;;;;;;;5031140;28;20053;-55
2024/04/03 04:09:52;;;;;;;4.05;1.35;;;;;;;;;;5021697;28;20045;-55
2024/04/03 04:12:19;;;;;;;1.95;0.90;;;;;;;;;;5035037;28;20465;-57
2024/04/03 04:14:50;;;;;;;2.92;0.90;;;;;;;;;;5034152;28;20052;-55
2024/04/03 04:17:17;;;;;;;3.70;1.30;;;;;;;;;;5023433;28;20060;-54
2024/04/03 04:19:44;;;;;;;2.88;1.10;;;;;;;;;;5034567;28;20156;-56
2024/04/03 04:22:10;;;;;;;3.55;1.27;;;;;;;;;;5035121;28;20064;-57
2024/04/03 04:24:39;;;;;;;1.83;1.10;;;;;;;;;;5034677;28;20129;-56
2024/04/03 04:27:07;;;;;;;2.78;1.10;;;;;;;;;;5034791;28;20054;-57
2024/04/03 04:29:37;;;;;;;2.70;1.17;;;;;;;;;;5034685;28;20053;-53
2024/04/03 04:32:04;;;;;;;2.85;1.55;;;;;;;;;;5024149;28;20453;-51
2024/04/03 04:34:31;;;;;;;2.95;1.45;;;;;;;;;;5030618;28;20493;-54
2024/04/03 04:36:57;;;;;;;2.70;1.27;;;;;;;;;;5034928;28;20049;-55
2024/04/03 04:39:24;;;;;;;3.22;1.10;;;;;;;;;;5034710;28;20135;-53
2024/04/03 04:41:51;;;;;;;4.40;1.30;;;;;;;;;;5034390;28;20049;-54
2024/04/03 04:44:18;;;;;;;3.58;1.40;;;;;;;;;;5034274;28;20145;-56
2024/04/03 04:46:47;;;;;;;4.50;1.90;;;;;;;;;;5031986;28;20056;-53
2024/04/03 04:49:16;;;;;;;4.68;1.45;;;;;;;;;;5021415;28;20072;-57
2024/04/03 04:51:42;;;;;;;2.78;1.05;;;;;;;;;;5024259;28;20049;-54
2024/04/03 04:54:11;;;;;;;2.10;1.27;;;;;;;;;;5028794;28;20057;-56
2024/04/03 04:56:36;;;;;;;3.75;1.60;;;;;;;;;;5023395;28;20057;-57
2024/04/03 04:59:03;;;;;;;2.85;1.17;;;;;;;;;;5016056;28;20449;-51
2024/04/03 05:01:33;;;;;;;3.80;1.40;;;;;;;;;;5028750;28;20049;-53
2024/04/03 05:04:00;;;;;;;2.88;1.10;;;;;;;;;;5014619;28;20042;-54
2024/04/03 05:06:27;;;;;;;2.95;1.17;;;;;;;;;;5014530;28;20065;-54
2024/04/03 05:08:54;;;;;;;2.97;1.25;;;;;;;;;;5014555;28;20050;-58
2024/04/03 05:11:20;;;;;;;2.58;1.10;;;;;;;;;;5019530;28;20049;-55
2024/04/03 05:13:47;;;;;;;3.40;1.08;;;;;;;;;;5019932;28;20041;-56
2024/04/03 05:16:14;;;;;;;3.42;1.23;;;;;;;;;;5027749;28;20064;-56
2024/04/03 05:18:42;;;;;;;3.08;1.10;;;;;;;;;;5033853;28;20050;-53
2024/04/03 05:21:08;;;;;;;3.55;1.35;;;;;;;;;;5033766;28;20467;-55
2024/04/03 05:23:37;;;;;;;4.82;1.40;;;;;;;;;;5033637;28;20049;-56
2024/04/03 05:26:05;;;;;;;2.78;1.20;;;;;;;;;;5033880;28;20072;-55
2024/04/03 05:28:33;;;;;;;4.47;1.42;;;;;;;;;;5033957;28;20501;-57
2024/04/03 05:31:03;;;;;;;3.97;1.40;;;;;;;;;;5031421;28;20041;-56
2024/04/03 05:33:30;;;;;;;3.67;1.93;;;;;;;;;;5033622;28;20049;-57
2024/04/03 05:35:57;;;;;;;3.25;1.30;;;;;;;;;;5033445;28;20045;-58
2024/04/03 05:38:24;;;;;;;3.30;1.55;;;;;;;;;;5029250;28;20081;-59
2024/04/03 05:40:52;;;;;;;5.05;1.70;;;;;;;;;;5033659;28;20056;-54
2024/04/03 05:43:19;;;;;;;4.70;1.95;;;;;;;;;;5033341;28;20045;-56
2024/04/03 05:45:45;;;;;;;6.53;1.63;;;;;;;;;;5025767;28;20054;-53
2024/04/03 05:48:12;;;;;;;4.75;1.75;;;;;;;;;;5033587;28;20053;-57
2024/04/03 05:50:38;;;;;;;3.72;1.90;;;;;;;;;;5033448;28;20132;-55
2024/04/03 05:53:05;;;;;;;4.47;1.75;;;;;;;;;;5020045;28;20420;-57
2024/04/03 05:55:31;;;;;;;5.25;1.60;;;;;;;;;;5022876;28;20433;-57
2024/04/03 05:58:00;;;;;;;5.88;2.03;;;;;;;;;;5013609;28;20049;-58
2024/04/03 06:00:26;;;;;;;3.25;1.50;;;;;;;;;;5013169;28;20054;-57
2024/04/03 06:02:53;;;;;;;3.97;1.70;;;;;;;;;;5013164;28;20470;-56
2024/04/03 06:05:19;;;;;;;3.60;1.55;;;;;;;;;;5013289;28;20050;-57
2024/04/03 06:07:47;;;;;;;7.90;2.03;;;;;;;;;;5013526;28;20046;-56
2024/04/03 06:10:13;;;;;;;8.50;1.88;;;;;;;;;;5017501;28;20701;-57
2024/04/03 06:12:41;;;;;;;4.13;1.45;;;;;;;;;;5033142;28;20053;-58
2024/04/03 06:15:08;;;;;;;3.47;1.83;;;;;;;;;;5032027;28;20079;-60
2024/04/03 06:17:35;;;;;;;5.15;1.95;;;;;;;;;;5013057;28;20081;-58
2024/04/03 06:20:01;;;;;;;3.10;1.25;;;;;;;;;;5021475;28;20125;-58
2024/04/03 06:22:28;;;;;;;4.07;1.30;;;;;;;;;;5017549;28;20128;-58
2024/04/03 06:24:54;;;;;;;2.60;1.40;;;;;;;;;;5023527;28;20489;-59
2024/04/03 06:27:21;;;;;;;5.65;1.58;;;;;;;;;;5018474;28;20053;-57
2024/04/03 06:29:46;;;;;;;4.88;1.67;;;;;;;;;;5013588;28;20047;-56
2024/04/03 06:32:15;;;;;;;4.40;1.70;;;;;;;;;;5011059;28;20056;-56
2024/04/03 06:34:41;;;;;;;3.58;1.50;;;;;;;;;;5012087;28;20413;-58
2024/04/03 06:37:08;;;;;;;4.88;1.38;;;;;;;;;;5012443;28;20409;-59
2024/04/03 06:39:33;;;;;;;5.22;1.70;;;;;;;;;;5019067;28;20422;-51
2024/04/03 06:42:01;;;;;;;2.92;1.38;;;;;;;;;;5023829;28;20050;-56
2024/04/03 06:44:27;;;;;;;4.72;1.80;;;;;;;;;;5016902;28;20104;-59
2024/04/03 06:47:00;;;;;;;2.60;1.35;;;;;;;;;;5012129;28;20050;-56
2024/04/03 06:49:29;;;;;;;4.78;1.83;;;;;;;;;;5012069;28;20068;-58
2024/04/03 06:51:56;;;;;;;6.18;1.90;;;;;;;;;;5022445;28;20726;-57
2024/04/03 06:54:22;;;;;;;6.47;1.65;;;;;;;;;;5011751;28;20039;-58
2024/04/03 06:56:49;;;;;;;4.28;1.70;;;;;;;;;;5029289;28;20406;-57
2024/04/03 06:59:15;;;;;;;5.07;1.95;;;;;;;;;;5032397;28;20053;-58
2024/04/03 07:01:42;;;;;;;5.13;1.50;;;;;;;;;;5032514;28;20054;-55
2024/04/03 07:04:08;;;;;;;5.07;1.50;;;;;;;;;;5023426;28;20509;-58
2024/04/03 07:06:38;;;;;;;5.32;1.63;;;;;;;;;;5017468;28;20129;-59
2024/04/03 07:09:05;;;;;;;3.33;1.00;;;;;;;;;;5012901;28;20046;-58
2024/04/03 07:11:32;;;;;;;2.47;1.10;;;;;;;;;;5025317;28;20120;-58
2024/04/03 07:13:57;;;;;;;5.35;1.33;;;;;;;;;;5012168;28;20053;-58
2024/04/03 07:16:25;;;;;;;3.63;1.33;;;;;;;;;;5012744;28;20056;-63
2024/04/03 07:18:54;;;;;;;5.50;1.40;;;;;;;;;;5019992;28;20559;-61
2024/04/03 07:21:21;;;;;;;4.30;1.42;;;;;;;;;;5024159;28;20049;-60
2024/04/03 07:23:48;;;;;;;5.05;1.58;;;;;;;;;;5013895;28;20085;-56
2024/04/03 07:26:16;;;;;;;3.83;1.63;;;;;;;;;;5011292;28;20056;-58
2024/04/03 07:28:42;;;;;;;5.63;1.85;;;;;;;;;;5015003;28;20500;-58
2024/04/03 07:31:09;;;;;;;5.00;1.60;;;;;;;;;;5022215;28;20081;-58
2024/04/03 07:33:35;;;;;;;3.97;1.60;;;;;;;;;;5008142;28;20417;-56
2024/04/03 07:36:02;;;;;;;3.47;1.40;;;;;;;;;;5002620;28;20057;-54
2024/04/03 07:38:28;;;;;;;5.60;1.60;;;;;;;;;;5010915;28;20042;-54
2024/04/03 07:40:57;;;;;;;4.47;1.70;;;;;;;;;;5013681;28;20046;-58
2024/04/03 07:43:23;;;;;;;3.08;1.40;;;;;;;;;;5009444;28;20152;-55
2024/04/03 07:45:57;;;;;;;6.53;1.50;;;;;;;;;;5011526;28;20097;-57
2024/04/03 07:48:23;;;;;;;5.50;1.65;;;;;;;;;;5017175;28;20651;-58
2024/04/03 07:50:50;;;;;;;3.90;1.63;;;;;;;;;;5015345;28;20523;-55
2024/04/03 07:53:15;;;;;;;3.67;1.52;;;;;;;;;;5020619;28;20068;-55
2024/04/03 07:55:43;;;;;;;3.90;1.30;;;;;;;;;;5009867;28;20042;-50
2024/04/03 07:58:10;;;;;;;4.95;1.83;;;;;;;;;;5019980;28;20077;-56
2024/04/03 08:00:37;;;;;;;5.72;1.60;;;;;;;;;;5017045;28;20394;-57
2024/04/03 08:03:03;;;;;;;3.50;1.15;;;;;;;;;;5018909;28;20417;-56
2024/04/03 08:05:30;;;;;;;1.35;0.98;;;;;;;;;;5000459;28;20485;-58
2024/04/03 08:07:56;;;;;;;2.70;1.00;;;;;;;;;;5006483;28;20490;-57
2024/04/03 08:10:23;;;;;;;3.00;1.10;;;;;;;;;;5016258;28;20049;-57
2024/04/03 08:12:49;;;;;;;5.03;1.17;;;;;;;;;;5023446;28;20557;-57
2024/04/03 08:15:18;;;;;;;5.93;1.17;;;;;;;;;;5011091;28;20125;-57
2024/04/03 08:17:44;;;;;;;4.10;0.98;;;;;;;;;;5020739;28;20551;-58
2024/04/03 08:20:10;;;;;;;3.25;1.30;;;;;;;;;;5008408;28;20057;-57
2024/04/03 08:22:37;;;;;;;4.47;1.60;;;;;;;;;;5010787;28;20421;-59
2024/04/03 08:25:05;;;;;;;3.72;1.15;;;;;;;;;;5009384;28;20046;-56
2024/04/03 08:27:32;;;;;;;5.45;1.35;;;;;;;;;;5019394;28;20468;-58
2024/04/03 08:29:59;;;;;;;5.30;1.20;;;;;;;;;;5017601;28;20046;-59
2024/04/03 08:32:29;;;;;;;6.80;1.33;;;;;;;;;;5008120;28;20065;-64
2024/04/03 08:34:56;;;;;;;3.60;1.48;;;;;;;;;;5019071;28;20053;-56
2024/04/03 08:37:22;;;;;;;4.50;1.52;;;;;;;;;;5016462;28;20046;-57
2024/04/03 08:39:52;;;;;;;3.83;1.70;;;;;;;;;;5010851;28;20050;-54
2024/04/03 08:42:18;;;;;;;3.63;1.20;;;;;;;;;;5018369;28;20053;-58
2024/04/03 08:44:45;;;;;;;3.30;1.33;;;;;;;;;;5018475;28;20169;-56
2024/04/03 08:47:12;;;;;;;3.22;1.35;;;;;;;;;;5021912;28;20041;-57
2024/04/03 08:49:40;;;;;;;3.17;1.10;;;;;;;;;;5012311;28;20053;-58
2024/04/03 08:52:07;;;;;;;3.03;1.25;;;;;;;;;;5015271;28;20063;-59
2024/04/03 08:54:35;;;;;;;8.00;1.63;;;;;;;;;;5007608;28;20042;-58
2024/04/03 08:57:03;;;;;;;6.10;1.30;;;;;;;;;;5012951;28;20421;-58
2024/04/03 08:59:32;;;;;;;5.50;1.50;;;;;;;;;;5011596;28;20065;-62
2024/04/03 09:01:58;;;;;;;5.28;1.67;;;;;;;;;;5008159;28;20057;-58
2024/04/03 09:04:26;;;;;;;6.75;1.60;;;;;;;;;;5012808;28;20041;-58
2024/04/03 09:06:53;;;;;;;7.28;2.33;;;;;;;;;;5013004;28;20065;-53
2024/04/03 09:09:22;;;;;;;27.38;9.43;;;;;;;;;;5020359;28;20510;-57
2024/04/03 09:11:50;;;;;;;9.60;3.22;;;;;;;;;;5019070;28;20046;-63
2024/04/03 09:14:21;;;;;;;10.07;2.10;;;;;;;;;;5009086;28;20493;-55
2024/04/03 09:16:47;;;;;;;3.15;1.30;;;;;;;;;;5012919;28;20129;-58
2024/04/03 09:19:15;;;;;;;3.88;1.17;;;;;;;;;;5021306;28;20046;-59
2024/04/03 09:21:41;;;;;;;3.55;1.10;;;;;;;;;;5011370;28;20042;-55
2024/04/03 09:24:09;;;;;;;2.88;0.98;;;;;;;;;;5013702;28;20050;-58
2024/04/03 09:26:43;;;;;;;1.92;0.90;;;;;;;;;;5015541;28;20056;-58
2024/04/03 09:29:15;;;;;;;1.90;0.70;;;;;;;;;;5015398;28;20091;-58
2024/04/03 09:31:41;;;;;;;1.85;0.80;;;;;;;;;;5015562;28;20390;-58
2024/04/03 09:34:08;;;;;;;2.33;0.63;;;;;;;;;;5022071;28;20416;-55
2024/04/03 09:36:35;;;;;;;3.25;0.93;;;;;;;;;;5020461;28;20552;-57
2024/04/03 09:39:02;;;;;;;1.88;0.82;;;;;;;;;;5010549;28;20554;-56
2024/04/03 09:41:30;;;;;;;2.25;0.90;;;;;;;;;;5020163;28;20493;-58
2024/04/03 09:44:02;;;;;;;1.67;0.70;;;;;;;;;;5014237;28;20576;-58
2024/04/03 09:46:41;;;;;;;2.45;0.70;;;;;;;;;;5019514;28;20049;-54
2024/04/03 09:49:10;;;;;;;1.30;0.57;;;;;;;;;;5017207;28;20053;-58
2024/04/03 09:51:36;;;;;;;2.05;1.00;;;;;;;;;;5019932;28;20057;-55
2024/04/03 09:54:04;;;;;;;2.50;0.93;;;;;;;;;;5016377;28;20053;-56
2024/04/03 09:56:32;;;;;;;2.10;0.82;;;;;;;;;;5006774;28;20053;-55
2024/04/03 09:59:01;;;;;;;3.72;0.70;;;;;;;;;;5006091;28;20099;-54
2024/04/03 10:01:29;;;;;;;2.50;0.80;;;;;;;;;;5022494;28;20563;-54
2024/04/03 10:04:03;;;;;;;2.65;0.80;;;;;;;;;;5015664;28;20374;-57
2024/04/03 10:06:35;;;;;;;2.28;0.80;;;;;;;;;;5019485;28;20056;-58
2024/04/03 10:09:15;;;;;;;2.58;0.90;;;;;;;;;;5011859;28;20045;-58
2024/04/03 10:11:47;;;;;;;2.60;0.80;;;;;;;;;;5021154;28;20050;-57
2024/04/03 10:14:20;;;;;;;3.13;1.00;;;;;;;;;;5019283;28;20509;-58
2024/04/03 10:16:45;;;;;;;4.00;1.08;;;;;;;;;;5012570;28;20549;-58
2024/04/03 10:19:12;;;;;;;2.28;1.10;;;;;;;;;;5027014;28;20145;-58
2024/04/03 10:21:38;;;;;;;2.33;1.00;;;;;;;;;;5020573;28;20054;-56
2024/04/03 10:24:07;;;;;;;2.88;1.10;;;;;;;;;;5026723;28;20064;-59
2024/04/03 10:26:33;;;;;;;3.53;1.63;;;;;;;;;;5024337;28;20076;-57
2024/04/03 10:29:05;;;;;;;5.10;1.33;;;;;;;;;;5023763;28;20048;-57
2024/04/03 10:31:31;;;;;;;2.65;1.10;;;;;;;;;;5018698;28;20417;-59
2024/04/03 10:33:58;;;;;;;1.65;0.75;;;;;;;;;;5017535;28;20057;-54
2024/04/03 10:36:24;;;;;;;2.85;1.10;;;;;;;;;;5022612;28;20057;-56
2024/04/03 10:38:51;;;;;;;4.72;1.15;;;;;;;;;;5022676;28;20050;-55
2024/04/03 10:41:17;;;;;;;4.35;1.20;;;;;;;;;;5023769;28;20686;-56
2024/04/03 10:43:44;;;;;;;1.88;1.10;;;;;;;;;;5020429;28;20052;-57
2024/04/03 10:46:22;;;;;;;3.80;1.30;;;;;;;;;;5020296;28;20104;-56
2024/04/03 10:48:48;;;;;;;3.72;1.65;;;;;;;;;;5013617;28;20083;-57
2024/04/03 10:51:14;;;;;;;4.45;1.27;;;;;;;;;;5023115;28;20168;-53
2024/04/03 10:53:42;;;;;;;2.15;0.93;;;;;;;;;;5023892;28;20057;-58
2024/04/03 10:56:09;;;;;;;3.67;1.00;;;;;;;;;;5026679;28;20053;-56
2024/04/03 10:58:39;;;;;;;2.60;1.30;;;;;;;;;;5021499;28;20122;-58
2024/04/03 11:01:05;;;;;;;2.78;1.30;;;;;;;;;;5016873;28;20088;-59
2024/04/03 11:03:35;;;;;;;4.07;1.13;;;;;;;;;;5018166;28;20053;-58
2024/04/03 11:06:01;;;;;;;4.10;1.50;;;;;;;;;;5011500;28;20070;-57
2024/04/03 11:08:28;;;;;;;3.00;1.20;;;;;;;;;;5018229;28;20092;-58
2024/04/03 11:11:03;;;;;;;2.40;1.30;;;;;;;;;;5012884;28;20058;-60
2024/04/03 11:13:30;;;;;;;1.80;0.80;;;;;;;;;;5022163;28;20050;-58
2024/04/03 11:15:55;;;;;;;2.60;1.00;;;;;;;;;;5015196;28;20056;-57
2024/04/03 11:18:22;;;;;;;2.42;0.88;;;;;;;;;;5017233;28;20053;-58
2024/04/03 11:20:50;;;;;;;1.67;0.70;;;;;;;;;;5012109;28;20061;-58
2024/04/03 11:23:17;;;;;;;1.52;0.60;;;;;;;;;;5012103;28;20061;-58
2024/04/03 11:25:43;;;;;;;1.52;0.90;;;;;;;;;;5012041;28;20541;-58
2024/04/03 11:28:12;;;;;;;1.95;0.82;;;;;;;;;;5012303;28;20052;-55
2024/04/03 11:30:41;;;;;;;1.90;0.82;;;;;;;;;;5016636;28;20061;-57
2024/04/03 11:33:08;;;;;;;1.63;0.77;;;;;;;;;;5005532;28;20418;-54
2024/04/03 11:35:34;;;;;;;1.95;0.90;;;;;;;;;;5018584;28;20046;-58
2024/04/03 11:38:04;;;;;;;2.30;0.90;;;;;;;;;;5013747;28;20417;-53
2024/04/03 11:40:30;;;;;;;;;;;;;;;;;;5016842;28;20046;-55
2024/04/03 11:42:57;;;;;;;2.63;0.90;;;;;;;;;;5016312;28;19983;-58
2024/04/03 11:45:23;;;;;;;2.60;0.80;;;;;;;;;;5016539;28;20045;-57
2024/04/03 11:47:51;;;;;;;2.22;0.85;;;;;;;;;;5017565;28;20052;-57
2024/04/03 11:50:17;;;;;;;1.85;0.70;;;;;;;;;;5016192;28;20493;-57
2024/04/03 11:52:44;;;;;;;1.52;0.60;;;;;;;;;;5013049;28;20052;-57
2024/04/03 11:55:11;;;;;;;2.47;0.90;;;;;;;;;;5015746;28;20053;-58
2024/04/03 11:57:38;;;;;;;2.03;0.80;;;;;;;;;;5011711;28;20054;-58
2024/04/03 12:00:05;;;;;;;2.50;0.70;;;;;;;;;;5011819;28;20057;-54
2024/04/03 12:02:32;;;;;;;2.28;0.60;;;;;;;;;;5011626;28;20072;-57
2024/04/03 12:04:57;;;;;;;1.40;0.70;;;;;;;;;;5011440;28;20053;-58
2024/04/03 12:07:24;;;;;;;3.03;0.80;;;;;;;;;;5011684;28;20437;-57
2024/04/03 12:09:50;;;;;;;1.50;0.68;;;;;;;;;;5011697;28;20045;-58
2024/04/03 12:12:18;;;;;;;1.30;0.70;;;;;;;;;;5011743;28;20512;-56
2024/04/03 12:14:44;;;;;;;2.00;0.80;;;;;;;;;;5011437;28;20049;-58
2024/04/03 12:17:13;;;;;;;2.88;0.80;;;;;;;;;;5011843;28;20057;-54
2024/04/03 12:19:44;;;;;;;2.67;0.90;;;;;;;;;;5011607;28;20049;-57
2024/04/03 12:22:12;;;;;;;2.40;1.00;;;;;;;;;;5011582;28;20493;-55
2024/04/03 12:24:38;;;;;;;1.77;0.70;;;;;;;;;;5011536;28;20504;-59
2024/04/03 12:27:05;;;;;;;2.90;0.88;;;;;;;;;;5011782;28;20077;-58
2024/04/03 12:29:32;;;;;;;1.10;0.70;;;;;;;;;;5011282;28;20050;-58
2024/04/03 12:32:00;;;;;;;1.95;0.80;;;;;;;;;;5013226;28;20532;-56
2024/04/03 12:34:26;;;;;;;1.25;0.80;;;;;;;;;;5015004;28;20057;-59
2024/04/03 12:36:52;;;;;;;1.15;0.70;;;;;;;;;;5014950;28;20053;-59
2024/04/03 12:39:18;;;;;;;2.33;0.90;;;;;;;;;;5015382;28;20494;-59
2024/04/03 12:41:45;;;;;;;1.65;0.70;;;;;;;;;;5015399;28;20053;-57
2024/04/03 12:44:12;;;;;;;3.10;0.88;;;;;;;;;;5014791;28;20049;-58
2024/04/03 12:46:40;;;;;;;2.30;0.63;;;;;;;;;;5015114;28;20054;-55
2024/04/03 12:49:06;;;;;;;1.98;0.63;;;;;;;;;;5015177;28;20057;-59
2024/04/03 12:51:33;;;;;;;1.38;0.60;;;;;;;;;;5014936;28;20493;-59
2024/04/03 12:53:59;;;;;;;2.30;0.60;;;;;;;;;;5014579;28;20054;-59
2024/04/03 12:56:26;;;;;;;1.38;0.68;;;;;;;;;;5015198;28;20046;-58
2024/04/03 12:58:52;;;;;;;1.92;0.60;;;;;;;;;;5014860;28;20080;-58
2024/04/03 13:01:19;;;;;;;1.52;0.70;;;;;;;;;;5014888;28;20510;-58
2024/04/03 13:03:46;;;;;;;2.47;0.80;;;;;;;;;;5014649;28;20054;-58
2024/04/03 13:06:13;;;;;;;2.80;0.90;;;;;;;;;;5014535;28;20050;-57
2024/04/03 13:08:39;;;;;;;1.38;0.80;;;;;;;;;;5014648;28;20053;-58
2024/04/03 13:11:06;;;;;;;4.45;0.93;;;;;;;;;;5014702;28;20054;-57
2024/04/03 13:13:33;;;;;;;2.30;0.90;;;;;;;;;;5014599;28;20505;-57
2024/04/03 13:16:00;;;;;;;2.28;0.98;;;;;;;;;;5014500;28;20391;-58
2024/04/03 13:18:26;;;;;;;1.85;0.90;;;;;;;;;;5014375;28;20072;-58
2024/04/03 13:20:55;;;;;;;2.70;1.23;;;;;;;;;;5014649;28;20054;-59
2024/04/03 13:23:21;;;;;;;2.83;0.70;;;;;;;;;;5014349;28;20061;-58
2024/04/03 13:25:48;;;;;;;1.70;0.88;;;;;;;;;;5014382;28;20045;-59
2024/04/03 13:28:15;;;;;;;2.13;1.10;;;;;;;;;;5014699;28;20054;-57
2024/04/03 13:30:42;;;;;;;3.42;1.00;;;;;;;;;;5014565;28;20073;-55
2024/04/03 13:33:07;;;;;;;2.55;0.95;;;;;;;;;;5014020;28;20052;-58
2024/04/03 13:35:34;;;;;;;2.33;0.98;;;;;;;;;;5014219;28;20046;-59
2024/04/03 13:38:02;;;;;;;2.75;0.70;;;;;;;;;;5014358;28;20053;-56
2024/04/03 13:40:29;;;;;;;2.25;0.90;;;;;;;;;;5014259;28;20132;-58
2024/04/03 13:42:54;;;;;;;2.38;1.13;;;;;;;;;;5013712;28;20050;-59
2024/04/03 13:45:21;;;;;;;4.13;1.10;;;;;;;;;;5013796;28;20049;-57
2024/04/03 13:47:47;;;;;;;2.25;1.10;;;;;;;;;;5015161;28;20057;-58
2024/04/03 13:50:17;;;;;;;3.00;0.90;;;;;;;;;;5014051;28;20046;-58
2024/04/03 13:52:43;;;;;;;4.07;1.20;;;;;;;;;;5013849;28;20105;-58
2024/04/03 13:55:11;;;;;;;2.20;1.17;;;;;;;;;;5009218;28;20055;-56
2024/04/03 13:57:38;;;;;;;3.70;1.35;;;;;;;;;;5010429;28;20417;-58
2024/04/03 14:00:09;;;;;;;3.55;1.02;;;;;;;;;;5013555;28;20539;-58
2024/04/03 14:02:35;;;;;;;3.42;1.10;;;;;;;;;;5013637;28;20073;-58
2024/04/03 14:05:02;;;;;;;1.85;1.00;;;;;;;;;;5013614;28;20042;-57
2024/04/03 14:07:28;;;;;;;2.13;0.85;;;;;;;;;;5013698;28;20425;-59
2024/04/03 14:09:55;;;;;;;3.38;0.73;;;;;;;;;;5006948;28;20100;-57
2024/04/03 14:12:22;;;;;;;1.83;0.80;;;;;;;;;;5014922;28;20469;-55
2024/04/03 14:14:49;;;;;;;1.75;0.88;;;;;;;;;;5014416;28;20088;-58
2024/04/03 14:17:15;;;;;;;1.85;0.90;;;;;;;;;;5013509;28;20486;-58
2024/04/03 14:19:42;;;;;;;2.58;1.00;;;;;;;;;;5011399;28;20046;-57
2024/04/03 14:22:08;;;;;;;2.15;0.93;;;;;;;;;;5017656;28;20426;-58
2024/04/03 14:24:35;;;;;;;3.28;0.98;;;;;;;;;;5014701;28;20487;-56
2024/04/03 14:27:01;;;;;;;2.13;0.90;;;;;;;;;;5013247;28;20494;-57
2024/04/03 14:29:30;;;;;;;2.50;1.00;;;;;;;;;;5011385;28;20058;-57
2024/04/03 14:31:56;;;;;;;2.15;1.00;;;;;;;;;;5015388;28;20493;-59
2024/04/03 14:34:23;;;;;;;2.53;0.90;;;;;;;;;;5020989;28;20060;-57
2024/04/03 14:36:51;;;;;;;2.13;0.55;;;;;;;;;;5014416;28;20053;-58
2024/04/03 14:39:18;;;;;;;1.13;0.65;;;;;;;;;;5013383;28;20383;-56
2024/04/03 14:41:44;;;;;;;1.42;0.60;;;;;;;;;;5011344;28;20076;-58
2024/04/03 14:44:10;;;;;;;1.02;0.50;;;;;;;;;;5013463;28;20505;-58
2024/04/03 14:46:38;;;;;;;1.85;0.60;;;;;;;;;;5012526;28;20057;-57